sensor_id;sensor_type;location;lat;lon;timestamp;temperature;humidity
66576;SHT31;53428;47.686;16.584;2024-02-16T00:02:35;5.01;96.29
66576;SHT31;53428;47.686;16.584;2024-02-16T00:07:35;5.08;96.14
66576;SHT31;53428;47.686;16.584;2024-02-16T00:12:37;5.16;95.58
66576;SHT31;53428;47.686;16.584;2024-02-16T00:17:37;5.13;95.85
66576;SHT31;53428;47.686;16.584;2024-02-16T00:22:36;5.19;95.59
66576;SHT31;53428;47.686;16.584;2024-02-16T00:27:35;5.18;95.45
66576;SHT31;53428;47.686;16.584;2024-02-16T00:32:35;4.99;95.78
66576;SHT31;53428;47.686;16.584;2024-02-16T00:37:35;5.04;95.05
66576;SHT31;53428;47.686;16.584;2024-02-16T00:42:37;4.91;95.86
66576;SHT31;53428;47.686;16.584;2024-02-16T00:47:36;5.02;94.76
66576;SHT31;53428;47.686;16.584;2024-02-16T00:52:35;5.01;94.80
66576;SHT31;53428;47.686;16.584;2024-02-16T00:57:36;4.99;94.50
66576;SHT31;53428;47.686;16.584;2024-02-16T01:02:35;5.07;94.45
66576;SHT31;53428;47.686;16.584;2024-02-16T01:07:34;5.11;94.48
66576;SHT31;53428;47.686;16.584;2024-02-16T01:12:34;5.08;94.21
66576;SHT31;53428;47.686;16.584;2024-02-16T01:17:33;5.09;94.44
66576;SHT31;53428;47.686;16.584;2024-02-16T01:22:33;4.98;94.62
66576;SHT31;53428;47.686;16.584;2024-02-16T01:27:32;5.12;94.42
66576;SHT31;53428;47.686;16.584;2024-02-16T01:32:32;5.21;94.23
66576;SHT31;53428;47.686;16.584;2024-02-16T01:37:31;5.32;93.76
66576;SHT31;53428;47.686;16.584;2024-02-16T01:42:30;5.43;92.99
66576;SHT31;53428;47.686;16.584;2024-02-16T01:47:30;5.56;92.78
66576;SHT31;53428;47.686;16.584;2024-02-16T01:52:30;5.52;92.60
66576;SHT31;53428;47.686;16.584;2024-02-16T01:57:31;5.32;93.25
66576;SHT31;53428;47.686;16.584;2024-02-16T02:02:30;5.26;93.74
66576;SHT31;53428;47.686;16.584;2024-02-16T02:07:30;5.28;93.64
66576;SHT31;53428;47.686;16.584;2024-02-16T02:12:29;5.28;93.20
66576;SHT31;53428;47.686;16.584;2024-02-16T02:17:28;5.16;94.10
66576;SHT31;53428;47.686;16.584;2024-02-16T02:22:28;5.07;94.45
66576;SHT31;53428;47.686;16.584;2024-02-16T02:27:27;4.98;94.38
66576;SHT31;53428;47.686;16.584;2024-02-16T02:32:26;5.22;94.25
66576;SHT31;53428;47.686;16.584;2024-02-16T02:37:27;5.12;94.12
66576;SHT31;53428;47.686;16.584;2024-02-16T02:42:26;5.32;93.31
66576;SHT31;53428;47.686;16.584;2024-02-16T02:47:27;5.29;93.20
66576;SHT31;53428;47.686;16.584;2024-02-16T02:52:26;5.25;93.99
66576;SHT31;53428;47.686;16.584;2024-02-16T02:57:25;5.12;93.89
66576;SHT31;53428;47.686;16.584;2024-02-16T03:02:25;5.02;94.42
66576;SHT31;53428;47.686;16.584;2024-02-16T03:07:25;5.39;93.51
66576;SHT31;53428;47.686;16.584;2024-02-16T03:12:25;5.56;92.82
66576;SHT31;53428;47.686;16.584;2024-02-16T03:17:24;5.43;92.83
66576;SHT31;53428;47.686;16.584;2024-02-16T03:22:23;5.16;94.09
66576;SHT31;53428;47.686;16.584;2024-02-16T03:27:23;5.35;93.08
66576;SHT31;53428;47.686;16.584;2024-02-16T03:32:22;5.44;93.06
66576;SHT31;53428;47.686;16.584;2024-02-16T03:37:21;5.49;92.78
66576;SHT31;53428;47.686;16.584;2024-02-16T03:42:20;5.60;92.21
66576;SHT31;53428;47.686;16.584;2024-02-16T03:47:20;5.74;91.57
66576;SHT31;53428;47.686;16.584;2024-02-16T03:52:20;5.63;91.95
66576;SHT31;53428;47.686;16.584;2024-02-16T03:57:19;5.42;92.70
66576;SHT31;53428;47.686;16.584;2024-02-16T04:02:19;5.31;93.26
66576;SHT31;53428;47.686;16.584;2024-02-16T04:07:18;5.13;93.96
66576;SHT31;53428;47.686;16.584;2024-02-16T04:12:17;4.94;94.55
66576;SHT31;53428;47.686;16.584;2024-02-16T04:17:17;4.85;94.56
66576;SHT31;53428;47.686;16.584;2024-02-16T04:22:16;4.83;94.98
66576;SHT31;53428;47.686;16.584;2024-02-16T04:27:15;5.12;94.43
66576;SHT31;53428;47.686;16.584;2024-02-16T04:32:14;5.36;93.56
66576;SHT31;53428;47.686;16.584;2024-02-16T04:37:14;5.54;92.97
66576;SHT31;53428;47.686;16.584;2024-02-16T04:42:13;5.63;92.37
66576;SHT31;53428;47.686;16.584;2024-02-16T04:47:12;5.78;92.00
66576;SHT31;53428;47.686;16.584;2024-02-16T04:52:12;5.74;92.24
66576;SHT31;53428;47.686;16.584;2024-02-16T04:57:11;5.86;91.66
66576;SHT31;53428;47.686;16.584;2024-02-16T05:02:11;5.87;92.02
66576;SHT31;53428;47.686;16.584;2024-02-16T05:07:10;5.88;91.50
66576;SHT31;53428;47.686;16.584;2024-02-16T05:12:09;5.84;91.82
66576;SHT31;53428;47.686;16.584;2024-02-16T05:17:09;5.93;91.68
66576;SHT31;53428;47.686;16.584;2024-02-16T05:22:08;5.78;92.08
66576;SHT31;53428;47.686;16.584;2024-02-16T05:27:08;5.69;92.44
66576;SHT31;53428;47.686;16.584;2024-02-16T05:32:07;5.81;92.55
66576;SHT31;53428;47.686;16.584;2024-02-16T05:37:06;5.75;92.56
66576;SHT31;53428;47.686;16.584;2024-02-16T05:42:06;5.59;92.60
66576;SHT31;53428;47.686;16.584;2024-02-16T05:47:06;5.54;93.20
66576;SHT31;53428;47.686;16.584;2024-02-16T05:52:06;5.77;92.75
66576;SHT31;53428;47.686;16.584;2024-02-16T05:57:19;5.80;92.63
66576;SHT31;53428;47.686;16.584;2024-02-16T06:02:18;5.93;92.13
66576;SHT31;53428;47.686;16.584;2024-02-16T06:07:18;5.86;92.05
66576;SHT31;53428;47.686;16.584;2024-02-16T06:12:17;5.81;92.55
66576;SHT31;53428;47.686;16.584;2024-02-16T06:17:16;5.84;92.32
66576;SHT31;53428;47.686;16.584;2024-02-16T06:22:16;6.02;91.91
66576;SHT31;53428;47.686;16.584;2024-02-16T06:27:15;6.28;91.23
66576;SHT31;53428;47.686;16.584;2024-02-16T06:32:14;6.40;90.78
66576;SHT31;53428;47.686;16.584;2024-02-16T06:37:16;6.53;90.66
66576;SHT31;53428;47.686;16.584;2024-02-16T06:42:15;6.70;90.07
66576;SHT31;53428;47.686;16.584;2024-02-16T06:47:14;6.81;89.90
66576;SHT31;53428;47.686;16.584;2024-02-16T06:52:14;6.84;89.77
66576;SHT31;53428;47.686;16.584;2024-02-16T06:57:13;6.84;89.67
66576;SHT31;53428;47.686;16.584;2024-02-16T07:02:13;6.88;89.66
66576;SHT31;53428;47.686;16.584;2024-02-16T07:07:13;6.95;89.45
66576;SHT31;53428;47.686;16.584;2024-02-16T07:12:13;6.90;89.65
66576;SHT31;53428;47.686;16.584;2024-02-16T07:17:12;7.16;89.03
66576;SHT31;53428;47.686;16.584;2024-02-16T07:22:11;7.34;88.55
66576;SHT31;53428;47.686;16.584;2024-02-16T07:27:11;7.45;88.28
66576;SHT31;53428;47.686;16.584;2024-02-16T07:32:11;7.55;88.25
66576;SHT31;53428;47.686;16.584;2024-02-16T07:37:11;7.77;87.49
66576;SHT31;53428;47.686;16.584;2024-02-16T07:42:10;7.95;87.19
66576;SHT31;53428;47.686;16.584;2024-02-16T07:47:11;8.04;86.95
66576;SHT31;53428;47.686;16.584;2024-02-16T07:52:11;8.20;86.91
66576;SHT31;53428;47.686;16.584;2024-02-16T07:57:10;8.31;86.63
66576;SHT31;53428;47.686;16.584;2024-02-16T08:02:10;8.46;86.61
66576;SHT31;53428;47.686;16.584;2024-02-16T08:07:14;8.53;86.36
66576;SHT31;53428;47.686;16.584;2024-02-16T08:12:13;8.72;86.25
66576;SHT31;53428;47.686;16.584;2024-02-16T08:17:13;8.86;86.15
66576;SHT31;53428;47.686;16.584;2024-02-16T08:22:12;9.03;86.16
66576;SHT31;53428;47.686;16.584;2024-02-16T08:27:11;9.32;85.36
66576;SHT31;53428;47.686;16.584;2024-02-16T08:32:11;9.49;84.30
66576;SHT31;53428;47.686;16.584;2024-02-16T08:37:11;9.68;83.50
66576;SHT31;53428;47.686;16.584;2024-02-16T08:42:11;9.93;82.88
66576;SHT31;53428;47.686;16.584;2024-02-16T08:47:10;10.14;82.41
66576;SHT31;53428;47.686;16.584;2024-02-16T08:52:09;10.29;81.75
66576;SHT31;53428;47.686;16.584;2024-02-16T08:57:09;10.41;81.31
66576;SHT31;53428;47.686;16.584;2024-02-16T09:02:08;10.62;80.61
66576;SHT31;53428;47.686;16.584;2024-02-16T09:07:08;10.85;80.46
66576;SHT31;53428;47.686;16.584;2024-02-16T09:12:07;11.03;79.94
66576;SHT31;53428;47.686;16.584;2024-02-16T09:17:07;11.23;79.16
66576;SHT31;53428;47.686;16.584;2024-02-16T09:22:06;11.44;78.71
66576;SHT31;53428;47.686;16.584;2024-02-16T09:27:05;11.61;78.10
66576;SHT31;53428;47.686;16.584;2024-02-16T09:32:05;11.95;77.28
66576;SHT31;53428;47.686;16.584;2024-02-16T09:37:04;12.08;76.65
66576;SHT31;53428;47.686;16.584;2024-02-16T10:07:18;13.00;74.18
66576;SHT31;53428;47.686;16.584;2024-02-16T10:12:18;13.14;73.68
66576;SHT31;53428;47.686;16.584;2024-02-16T10:17:18;13.34;73.11
66576;SHT31;53428;47.686;16.584;2024-02-16T10:22:18;13.39;72.91
66576;SHT31;53428;47.686;16.584;2024-02-16T10:27:17;13.49;72.60
66576;SHT31;53428;47.686;16.584;2024-02-16T10:32:18;13.67;72.01
66576;SHT31;53428;47.686;16.584;2024-02-16T10:37:17;13.74;71.82
66576;SHT31;53428;47.686;16.584;2024-02-16T10:42:16;14.01;71.46
66576;SHT31;53428;47.686;16.584;2024-02-16T10:47:18;13.86;71.25
66576;SHT31;53428;47.686;16.584;2024-02-16T10:52:18;13.93;71.34
66576;SHT31;53428;47.686;16.584;2024-02-16T10:57:17;14.25;70.58
66576;SHT31;53428;47.686;16.584;2024-02-16T11:02:17;14.36;70.47
66576;SHT31;53428;47.686;16.584;2024-02-16T11:07:18;14.29;69.80
66576;SHT31;53428;47.686;16.584;2024-02-16T11:12:17;14.59;69.48
66576;SHT31;53428;47.686;16.584;2024-02-16T11:17:21;14.61;69.58
66576;SHT31;53428;47.686;16.584;2024-02-16T11:22:20;14.83;69.70
66576;SHT31;53428;47.686;16.584;2024-02-16T11:27:20;14.52;69.81
66576;SHT31;53428;47.686;16.584;2024-02-16T11:32:20;14.90;69.34
66576;SHT31;53428;47.686;16.584;2024-02-16T11:37:19;15.06;69.49
66576;SHT31;53428;47.686;16.584;2024-02-16T11:42:19;15.31;70.12
66576;SHT31;53428;47.686;16.584;2024-02-16T11:47:27;15.88;68.42
66576;SHT31;53428;47.686;16.584;2024-02-16T11:52:26;17.13;66.02
66576;SHT31;53428;47.686;16.584;2024-02-16T11:57:26;17.81;64.54
66576;SHT31;53428;47.686;16.584;2024-02-16T12:02:25;17.84;63.81
66576;SHT31;53428;47.686;16.584;2024-02-16T12:07:28;18.47;62.22
66576;SHT31;53428;47.686;16.584;2024-02-16T12:12:27;19.18;60.26
66576;SHT31;53428;47.686;16.584;2024-02-16T12:17:26;17.91;62.45
66576;SHT31;53428;47.686;16.584;2024-02-16T12:22:26;18.30;62.09
66576;SHT31;53428;47.686;16.584;2024-02-16T12:27:25;19.15;60.53
66576;SHT31;53428;47.686;16.584;2024-02-16T12:32:24;18.55;61.42
66576;SHT31;53428;47.686;16.584;2024-02-16T12:37:23;18.98;60.37
66576;SHT31;53428;47.686;16.584;2024-02-16T12:42:23;18.66;61.21
66576;SHT31;53428;47.686;16.584;2024-02-16T12:47:22;19.14;60.40
66576;SHT31;53428;47.686;16.584;2024-02-16T12:52:21;19.05;60.18
66576;SHT31;53428;47.686;16.584;2024-02-16T12:57:23;19.79;59.26
66576;SHT31;53428;47.686;16.584;2024-02-16T13:02:22;19.76;58.91
66576;SHT31;53428;47.686;16.584;2024-02-16T13:07:22;19.62;58.76
66576;SHT31;53428;47.686;16.584;2024-02-16T13:12:21;18.83;60.09
66576;SHT31;53428;47.686;16.584;2024-02-16T13:17:22;18.71;59.78
66576;SHT31;53428;47.686;16.584;2024-02-16T13:22:21;20.68;55.87
66576;SHT31;53428;47.686;16.584;2024-02-16T13:27:21;20.44;56.06
66576;SHT31;53428;47.686;16.584;2024-02-16T13:32:20;20.01;56.64
66576;SHT31;53428;47.686;16.584;2024-02-16T13:37:19;20.21;56.06
66576;SHT31;53428;47.686;16.584;2024-02-16T13:42:18;19.04;59.36
66576;SHT31;53428;47.686;16.584;2024-02-16T13:47:18;18.52;59.33
66576;SHT31;53428;47.686;16.584;2024-02-16T13:52:17;19.22;58.60
66576;SHT31;53428;47.686;16.584;2024-02-16T13:57:17;19.60;57.66
66576;SHT31;53428;47.686;16.584;2024-02-16T14:02:16;18.97;58.56
66576;SHT31;53428;47.686;16.584;2024-02-16T14:07:15;20.21;56.90
66576;SHT31;53428;47.686;16.584;2024-02-16T14:12:15;20.66;56.23
66576;SHT31;53428;47.686;16.584;2024-02-16T14:17:15;19.49;58.21
66576;SHT31;53428;47.686;16.584;2024-02-16T14:22:14;18.93;57.97
66576;SHT31;53428;47.686;16.584;2024-02-16T14:27:13;16.86;63.18
66576;SHT31;53428;47.686;16.584;2024-02-16T14:32:12;16.36;64.76
66576;SHT31;53428;47.686;16.584;2024-02-16T14:37:11;15.31;66.99
66576;SHT31;53428;47.686;16.584;2024-02-16T14:42:10;14.93;68.47
66576;SHT31;53428;47.686;16.584;2024-02-16T14:47:10;14.89;68.40
66576;SHT31;53428;47.686;16.584;2024-02-16T14:52:09;14.68;69.00
66576;SHT31;53428;47.686;16.584;2024-02-16T14:57:08;14.21;70.13
66576;SHT31;53428;47.686;16.584;2024-02-16T15:02:08;14.11;70.54
66576;SHT31;53428;47.686;16.584;2024-02-16T15:07:08;14.01;70.76
66576;SHT31;53428;47.686;16.584;2024-02-16T15:12:08;13.81;71.23
66576;SHT31;53428;47.686;16.584;2024-02-16T15:17:07;13.59;71.56
66576;SHT31;53428;47.686;16.584;2024-02-16T15:22:07;13.50;72.00
66576;SHT31;53428;47.686;16.584;2024-02-16T15:27:07;13.28;72.66
66576;SHT31;53428;47.686;16.584;2024-02-16T15:32:06;13.19;73.04
66576;SHT31;53428;47.686;16.584;2024-02-16T15:37:07;13.01;73.45
66576;SHT31;53428;47.686;16.584;2024-02-16T15:42:07;12.83;74.05
66576;SHT31;53428;47.686;16.584;2024-02-16T15:47:06;12.63;74.64
66576;SHT31;53428;47.686;16.584;2024-02-16T15:52:08;12.44;74.90
66576;SHT31;53428;47.686;16.584;2024-02-16T15:57:07;12.23;75.70
66576;SHT31;53428;47.686;16.584;2024-02-16T16:02:06;12.05;75.99
66576;SHT31;53428;47.686;16.584;2024-02-16T16:07:06;11.79;76.67
66576;SHT31;53428;47.686;16.584;2024-02-16T16:12:05;11.66;77.08
66576;SHT31;53428;47.686;16.584;2024-02-16T16:17:05;11.37;78.01
66576;SHT31;53428;47.686;16.584;2024-02-16T16:22:04;11.16;78.67
66576;SHT31;53428;47.686;16.584;2024-02-16T16:27:04;11.08;79.17
66576;SHT31;53428;47.686;16.584;2024-02-16T16:32:08;10.91;79.43
66576;SHT31;53428;47.686;16.584;2024-02-16T16:37:07;10.65;79.75
66576;SHT31;53428;47.686;16.584;2024-02-16T16:42:06;10.69;80.35
66576;SHT31;53428;47.686;16.584;2024-02-16T16:47:06;10.44;81.15
66576;SHT31;53428;47.686;16.584;2024-02-16T16:52:06;10.44;81.10
66576;SHT31;53428;47.686;16.584;2024-02-16T16:57:06;10.20;81.52
66576;SHT31;53428;47.686;16.584;2024-02-16T17:02:05;10.21;81.61
66576;SHT31;53428;47.686;16.584;2024-02-16T17:07:05;10.09;82.14
66576;SHT31;53428;47.686;16.584;2024-02-16T17:12:04;10.02;82.24
66576;SHT31;53428;47.686;16.584;2024-02-16T17:17:04;9.92;82.74
66576;SHT31;53428;47.686;16.584;2024-02-16T17:22:04;9.93;82.44
66576;SHT31;53428;47.686;16.584;2024-02-16T17:27:04;9.86;82.82
66576;SHT31;53428;47.686;16.584;2024-02-16T17:32:03;9.83;82.61
66576;SHT31;53428;47.686;16.584;2024-02-16T17:37:02;9.69;82.96
66576;SHT31;53428;47.686;16.584;2024-02-16T17:42:02;9.59;83.37
66576;SHT31;53428;47.686;16.584;2024-02-16T17:47:01;9.51;83.81
66576;SHT31;53428;47.686;16.584;2024-02-16T17:52:00;9.51;83.67
66576;SHT31;53428;47.686;16.584;2024-02-16T17:56:59;9.37;84.33
66576;SHT31;53428;47.686;16.584;2024-02-16T18:02:00;9.41;84.24
66576;SHT31;53428;47.686;16.584;2024-02-16T18:06:59;9.37;84.53
66576;SHT31;53428;47.686;16.584;2024-02-16T18:11:59;9.03;85.27
66576;SHT31;53428;47.686;16.584;2024-02-16T18:16:58;9.08;84.97
66576;SHT31;53428;47.686;16.584;2024-02-16T18:21:58;9.11;85.35
66576;SHT31;53428;47.686;16.584;2024-02-16T18:26:57;9.03;85.17
66576;SHT31;53428;47.686;16.584;2024-02-16T18:31:56;9.01;85.68
66576;SHT31;53428;47.686;16.584;2024-02-16T18:36:56;8.79;85.98
66576;SHT31;53428;47.686;16.584;2024-02-16T18:41:56;8.96;85.73
66576;SHT31;53428;47.686;16.584;2024-02-16T18:46:56;9.16;85.26
66576;SHT31;53428;47.686;16.584;2024-02-16T18:51:55;9.10;85.05
66576;SHT31;53428;47.686;16.584;2024-02-16T18:56:54;9.07;85.31
66576;SHT31;53428;47.686;16.584;2024-02-16T19:01:53;9.08;85.22
66576;SHT31;53428;47.686;16.584;2024-02-16T19:06:59;8.87;85.74
66576;SHT31;53428;47.686;16.584;2024-02-16T19:11:59;8.90;85.76
66576;SHT31;53428;47.686;16.584;2024-02-16T19:16:58;8.76;86.19
66576;SHT31;53428;47.686;16.584;2024-02-16T19:21:57;8.66;86.47
66576;SHT31;53428;47.686;16.584;2024-02-16T19:26:56;8.63;87.11
66576;SHT31;53428;47.686;16.584;2024-02-16T19:31:57;8.58;86.76
66576;SHT31;53428;47.686;16.584;2024-02-16T19:36:56;8.41;87.16
66576;SHT31;53428;47.686;16.584;2024-02-16T19:41:55;8.08;87.99
66576;SHT31;53428;47.686;16.584;2024-02-16T19:46:55;7.94;88.92
66576;SHT31;53428;47.686;16.584;2024-02-16T19:51:54;7.65;89.52
66576;SHT31;53428;47.686;16.584;2024-02-16T19:56:54;7.55;90.20
66576;SHT31;53428;47.686;16.584;2024-02-16T20:01:53;7.48;90.64
66576;SHT31;53428;47.686;16.584;2024-02-16T20:06:52;7.45;90.52
66576;SHT31;53428;47.686;16.584;2024-02-16T20:11:51;7.36;90.49
66576;SHT31;53428;47.686;16.584;2024-02-16T20:16:50;7.39;90.40
66576;SHT31;53428;47.686;16.584;2024-02-16T20:21:50;7.39;90.13
66576;SHT31;53428;47.686;16.584;2024-02-16T20:26:49;7.28;90.41
66576;SHT31;53428;47.686;16.584;2024-02-16T20:31:49;7.34;90.15
66576;SHT31;53428;47.686;16.584;2024-02-16T20:36:48;7.56;89.45
66576;SHT31;53428;47.686;16.584;2024-02-16T20:41:48;7.55;89.18
66576;SHT31;53428;47.686;16.584;2024-02-16T20:46:51;7.42;89.54
66576;SHT31;53428;47.686;16.584;2024-02-16T20:51:50;7.32;89.94
66576;SHT31;53428;47.686;16.584;2024-02-16T20:56:49;7.25;89.99
66576;SHT31;53428;47.686;16.584;2024-02-16T21:01:49;7.24;90.10
66576;SHT31;53428;47.686;16.584;2024-02-16T21:06:48;7.04;90.80
66576;SHT31;53428;47.686;16.584;2024-02-16T21:11:47;6.98;90.78
66576;SHT31;53428;47.686;16.584;2024-02-16T21:16:46;7.08;90.95
66576;SHT31;53428;47.686;16.584;2024-02-16T21:21:47;7.04;91.17
66576;SHT31;53428;47.686;16.584;2024-02-16T21:26:47;7.18;90.79
66576;SHT31;53428;47.686;16.584;2024-02-16T21:31:47;7.39;90.03
66576;SHT31;53428;47.686;16.584;2024-02-16T21:36:46;7.43;90.20
66576;SHT31;53428;47.686;16.584;2024-02-16T21:41:46;7.24;90.34
66576;SHT31;53428;47.686;16.584;2024-02-16T21:46:45;7.26;90.18
66576;SHT31;53428;47.686;16.584;2024-02-16T21:51:44;7.11;90.60
66576;SHT31;53428;47.686;16.584;2024-02-16T21:56:44;7.15;90.96
66576;SHT31;53428;47.686;16.584;2024-02-16T22:01:43;7.63;89.36
66576;SHT31;53428;47.686;16.584;2024-02-16T22:06:42;7.84;88.84
66576;SHT31;53428;47.686;16.584;2024-02-16T22:11:41;7.87;88.66
66576;SHT31;53428;47.686;16.584;2024-02-16T22:16:40;7.90;88.95
66576;SHT31;53428;47.686;16.584;2024-02-16T22:21:40;7.97;88.47
66576;SHT31;53428;47.686;16.584;2024-02-16T22:26:40;7.87;88.67
66576;SHT31;53428;47.686;16.584;2024-02-16T22:31:39;8.11;88.36
66576;SHT31;53428;47.686;16.584;2024-02-16T22:36:39;8.27;87.70
66576;SHT31;53428;47.686;16.584;2024-02-16T22:41:38;8.34;87.60
66576;SHT31;53428;47.686;16.584;2024-02-16T22:46:37;8.41;87.18
66576;SHT31;53428;47.686;16.584;2024-02-16T22:51:36;8.41;87.36
66576;SHT31;53428;47.686;16.584;2024-02-16T22:56:36;8.35;87.41
66576;SHT31;53428;47.686;16.584;2024-02-16T23:01:35;8.28;87.86
66576;SHT31;53428;47.686;16.584;2024-02-16T23:06:36;8.38;87.74
66576;SHT31;53428;47.686;16.584;2024-02-16T23:11:35;8.25;87.73
66576;SHT31;53428;47.686;16.584;2024-02-16T23:16:34;8.05;88.25
66576;SHT31;53428;47.686;16.584;2024-02-16T23:21:33;7.91;88.61
66576;SHT31;53428;47.686;16.584;2024-02-16T23:26:32;7.79;89.06
66576;SHT31;53428;47.686;16.584;2024-02-16T23:31:31;7.87;88.85
66576;SHT31;53428;47.686;16.584;2024-02-16T23:36:30;7.83;89.08
66576;SHT31;53428;47.686;16.584;2024-02-16T23:41:30;7.76;89.30
66576;SHT31;53428;47.686;16.584;2024-02-16T23:46:29;7.84;89.49
66576;SHT31;53428;47.686;16.584;2024-02-16T23:51:32;7.77;89.49
66576;SHT31;53428;47.686;16.584;2024-02-16T23:56:31;7.82;89.67
